Pagrindinis puslapis
METAR-TAF:

METAR-TAF

Oro uostai :

Ljungbyhed, Švedija

platuma: 56-04N, ilguma: 013-12E, Aukštis: 43 m

Dabartinis oras

Ataskaita buvo paskelbta 12 minutes, ne 03:50 UTC
Vėjas 5 kt iš Rytų
Temperatūra -7°C
Drėgmė 100%
Slėgis 997 hPa
Matomumas 10 km arba daugiau

METAR: ESTL 010350Z AUTO 08005KT 9999 NCD M07/M07 Q0997

Laikas: 05:02 (04:02 UTC)

Prognozė

Ataskaita buvo paskelbta 16 valandos ir 57 minutes, ne 11:05 UTC
Prognozė galioja nuo 30 metu 12 UTC su 30 metu 16 UTC
Vėjas 8 kt iš Rytų/Šiaurės Rytų
Matomumas 10 km arba daugiau
Su prošvaistėmis ne aukštis 500 ft
Laikinai
nuo 30 metu 12 UTC su 30 metu 14 UTC
Matomumas: 4000 m
Su prošvaistėmis ne aukštis 1500 ft
sniegas, lietus
Tapsmas
nuo 30 metu 14 UTC su 30 metu 16 UTC
Su prošvaistėmis ne aukštis 2000 ft

TAF: ESTL 301105Z 3012/3016 06008KT 9999 BKN005 TEMPO 3012/3014 4000 -SNRA BKN015 BECMG 3014/3016 BKN020

Orai ataskaitas ir orų prognozės (METAR, TAF).

turimą stotys yra geltonos ir raudonos taškus žemėlapyje.

Perkelti pele per norėdami pamatyti stoties vardą.

Tada spustelėkite, norėdami matyti oro stebėjimo ir prognozės.

Norėdami pakeisti žemėlapį: spustelėkite ant žalios mygtukų su juodo kryžiaus žemyn,; žalią mygtuką su brūkšneliu, jei norite nutolinti; arba žalių rodyklių gretimoms žemėlapius.


METAR-TAF: